Time;durP1;ratioP1;P1;durP2;ratioP2;P2;SDS_P1;SDS_P2;PMS_P1;PMS_P2;Temp;Humidity;BMP_temperature;BMP_pressure;BME280_temperature;BME280_humidity;BME280_pressure;Samples;Min_cycle;Max_cycle;Signal;HPM_P1;HPM_P2
2023/05/13 00:02:19;;;;;;;3.53;1.87;;;;;;;;;;5060824;27;87005;-55
2023/05/13 00:04:48;;;;;;;4.40;2.37;;;;;;;;;;5061229;27;87090;-55
2023/05/13 00:07:16;;;;;;;3.90;2.40;;;;;;;;;;5055552;27;88748;-54
2023/05/13 00:09:44;;;;;;;5.50;3.07;;;;;;;;;;5050725;27;88733;-55
2023/05/13 00:12:14;;;;;;;5.07;2.63;;;;;;;;;;5061471;27;88443;-55
2023/05/13 00:14:42;;;;;;;4.90;2.50;;;;;;;;;;5060420;27;87188;-55
2023/05/13 00:17:11;;;;;;;4.60;2.17;;;;;;;;;;5059049;27;89245;-55
2023/05/13 00:19:39;;;;;;;5.67;2.33;;;;;;;;;;5050518;27;87791;-56
2023/05/13 00:22:07;;;;;;;4.40;2.17;;;;;;;;;;5056955;27;87046;-55
2023/05/13 00:24:36;;;;;;;2.40;2.20;;;;;;;;;;5056084;27;87018;-56
2023/05/13 00:27:04;;;;;;;4.70;2.20;;;;;;;;;;5049873;27;89204;-55
2023/05/13 00:29:34;;;;;;;4.17;2.77;;;;;;;;;;5048125;27;88903;-56
2023/05/13 00:32:03;;;;;;;3.33;2.20;;;;;;;;;;5062445;27;87423;-56
2023/05/13 00:34:31;;;;;;;3.87;2.27;;;;;;;;;;5062214;27;87099;-56
2023/05/13 00:37:00;;;;;;;6.43;3.10;;;;;;;;;;5061089;27;90277;-56
2023/05/13 00:39:28;;;;;;;2.60;1.57;;;;;;;;;;5061606;27;89904;-56
2023/05/13 00:41:58;;;;;;;3.43;1.73;;;;;;;;;;5057188;27;87025;-56
2023/05/13 00:44:27;;;;;;;2.03;1.70;;;;;;;;;;5061788;27;87061;-57
2023/05/13 00:46:57;;;;;;;5.73;1.87;;;;;;;;;;5061653;27;89195;-56
2023/05/13 00:49:25;;;;;;;2.63;1.70;;;;;;;;;;5061857;27;88654;-56
2023/05/13 00:51:54;;;;;;;2.50;1.80;;;;;;;;;;5045054;27;86986;-56
2023/05/13 00:54:22;;;;;;;2.83;1.87;;;;;;;;;;5062199;27;87332;-56
2023/05/13 00:56:53;;;;;;;4.17;1.60;;;;;;;;;;5061762;27;88534;-56
2023/05/13 00:59:21;;;;;;;3.17;1.90;;;;;;;;;;5048105;27;88650;-56
2023/05/13 01:01:52;;;;;;;2.07;1.77;;;;;;;;;;5049516;27;88058;-56
2023/05/13 01:04:25;;;;;;;2.07;1.73;;;;;;;;;;5049011;27;87115;-56
2023/05/13 01:06:57;;;;;;;3.07;1.80;;;;;;;;;;5062732;27;88083;-56
2023/05/13 01:09:28;;;;;;;2.97;1.40;;;;;;;;;;5059259;27;87979;-56
2023/05/13 01:11:56;;;;;;;3.13;1.87;;;;;;;;;;5045201;27;86853;-56
2023/05/13 01:14:26;;;;;;;1.47;1.13;;;;;;;;;;5051596;27;87073;-56
2023/05/13 01:16:56;;;;;;;1.60;1.00;;;;;;;;;;5058010;27;89392;-55
2023/05/13 01:19:32;;;;;;;1.73;1.50;;;;;;;;;;5061720;27;88800;-56
2023/05/13 01:22:01;;;;;;;3.07;1.33;;;;;;;;;;5047722;27;87062;-56
2023/05/13 01:24:30;;;;;;;1.10;1.00;;;;;;;;;;5053519;27;87075;-55
2023/05/13 01:26:58;;;;;;;2.83;1.20;;;;;;;;;;5060348;27;90234;-55
2023/05/13 01:29:26;;;;;;;2.00;1.43;;;;;;;;;;5059411;27;88879;-56
2023/05/13 01:31:55;;;;;;;1.70;1.60;;;;;;;;;;5047911;27;87095;-56
2023/05/13 01:34:23;;;;;;;4.30;1.47;;;;;;;;;;5052126;27;86723;-55
2023/05/13 01:36:51;;;;;;;1.67;1.20;;;;;;;;;;5065240;27;87528;-55
2023/05/13 01:39:21;;;;;;;2.53;1.43;;;;;;;;;;5064766;27;88969;-56
2023/05/13 01:41:49;;;;;;;1.73;1.00;;;;;;;;;;5064907;27;87039;-56
2023/05/13 01:44:17;;;;;;;2.07;1.47;;;;;;;;;;5065140;27;86412;-55
2023/05/13 01:46:46;;;;;;;5.83;1.23;;;;;;;;;;5064775;27;89151;-55
2023/05/13 01:49:14;;;;;;;2.07;1.27;;;;;;;;;;5061016;27;88951;-55
2023/05/13 01:51:43;;;;;;;1.20;1.10;;;;;;;;;;5062199;27;88049;-56
2023/05/13 01:54:11;;;;;;;2.03;1.20;;;;;;;;;;5064491;27;86891;-56
2023/05/13 01:56:41;;;;;;;2.13;1.47;;;;;;;;;;5064872;27;87926;-56
2023/05/13 01:59:09;;;;;;;3.63;1.23;;;;;;;;;;5064841;27;89368;-56
2023/05/13 02:01:39;;;;;;;1.70;1.03;;;;;;;;;;5064460;27;87187;-55
2023/05/13 02:04:07;;;;;;;0.90;0.90;;;;;;;;;;5063529;27;87069;-55
2023/05/13 02:06:36;;;;;;;2.60;1.10;;;;;;;;;;5063315;27;89153;-56
2023/05/13 02:09:04;;;;;;;1.37;1.20;;;;;;;;;;5061972;27;88816;-56
2023/05/13 02:11:32;;;;;;;2.73;1.20;;;;;;;;;;5058095;27;87521;-56
2023/05/13 02:14:02;;;;;;;2.47;1.50;;;;;;;;;;5061315;27;87052;-56
2023/05/13 02:16:31;;;;;;;1.17;0.90;;;;;;;;;;5059458;27;89267;-56
2023/05/13 02:18:59;;;;;;;1.10;1.10;;;;;;;;;;5060499;27;88762;-56
2023/05/13 02:21:28;;;;;;;1.67;1.17;;;;;;;;;;5061171;27;87189;-56
2023/05/13 02:23:56;;;;;;;1.23;1.10;;;;;;;;;;5060340;27;87576;-56
2023/05/13 02:26:25;;;;;;;1.40;1.30;;;;;;;;;;5063481;27;89195;-56
2023/05/13 02:28:53;;;;;;;2.20;1.50;;;;;;;;;;5061436;27;88874;-56
2023/05/13 02:31:23;;;;;;;2.83;1.50;;;;;;;;;;5064280;27;87044;-56
2023/05/13 02:33:51;;;;;;;1.77;1.20;;;;;;;;;;5064955;27;86394;-56
2023/05/13 02:36:19;;;;;;;2.67;1.27;;;;;;;;;;5063828;27;89197;-56
2023/05/13 02:38:47;;;;;;;1.33;0.93;;;;;;;;;;5063802;27;88901;-56
2023/05/13 02:41:16;;;;;;;1.83;1.23;;;;;;;;;;5064269;27;88349;-55
2023/05/13 02:43:45;;;;;;;1.73;1.30;;;;;;;;;;5062909;27;87179;-56
2023/05/13 02:46:14;;;;;;;2.63;1.40;;;;;;;;;;5063775;27;88094;-55
2023/05/13 02:48:43;;;;;;;1.87;1.50;;;;;;;;;;5062860;27;89595;-56
2023/05/13 02:51:12;;;;;;;2.67;1.80;;;;;;;;;;5064019;27;87062;-55
2023/05/13 02:53:40;;;;;;;1.30;1.20;;;;;;;;;;5052779;27;87017;-56
2023/05/13 02:56:08;;;;;;;1.67;1.37;;;;;;;;;;5054415;27;89236;-55
2023/05/13 02:58:37;;;;;;;1.73;1.00;;;;;;;;;;5064287;27;88847;-56
2023/05/13 03:01:05;;;;;;;1.30;1.10;;;;;;;;;;5063356;27;87063;-56
2023/05/13 03:03:33;;;;;;;1.10;1.00;;;;;;;;;;5062986;27;86886;-56
2023/05/13 03:06:03;;;;;;;1.40;1.30;;;;;;;;;;5062164;27;89013;-56
2023/05/13 03:08:31;;;;;;;1.43;1.17;;;;;;;;;;5063684;27;89064;-56
2023/05/13 03:11:00;;;;;;;1.37;1.27;;;;;;;;;;5063739;27;87035;-56
2023/05/13 03:13:28;;;;;;;1.33;1.23;;;;;;;;;;5063450;27;87085;-56
2023/05/13 03:15:56;;;;;;;1.50;1.40;;;;;;;;;;5063298;27;89166;-57
2023/05/13 03:18:25;;;;;;;1.50;1.40;;;;;;;;;;5062939;27;88999;-56
2023/05/13 03:20:53;;;;;;;1.47;1.23;;;;;;;;;;5063853;27;86842;-55
2023/05/13 03:23:23;;;;;;;1.23;1.13;;;;;;;;;;5063694;27;86091;-56
2023/05/13 03:25:51;;;;;;;1.73;1.50;;;;;;;;;;5063050;27;89063;-56
2023/05/13 03:28:20;;;;;;;2.73;1.57;;;;;;;;;;5061633;27;89040;-56
2023/05/13 03:30:48;;;;;;;2.03;1.27;;;;;;;;;;5062977;27;87977;-56
2023/05/13 03:33:16;;;;;;;1.43;1.30;;;;;;;;;;5062635;27;87815;-56
2023/05/13 03:35:47;;;;;;;1.27;1.13;;;;;;;;;;5062694;27;89219;-56
2023/05/13 03:38:15;;;;;;;3.07;1.27;;;;;;;;;;5062852;27;87716;-56
2023/05/13 03:40:45;;;;;;;5.80;1.40;;;;;;;;;;5062885;27;87134;-56
2023/05/13 03:43:14;;;;;;;2.67;1.33;;;;;;;;;;5062280;27;86984;-55
2023/05/13 03:45:46;;;;;;;1.67;1.17;;;;;;;;;;5063016;27;88045;-55
2023/05/13 03:48:15;;;;;;;3.00;1.20;;;;;;;;;;5062320;27;88344;-56
2023/05/13 03:50:43;;;;;;;1.73;1.50;;;;;;;;;;5062878;27;87038;-55
2023/05/13 03:53:11;;;;;;;1.40;1.20;;;;;;;;;;5062878;27;87181;-55
2023/05/13 03:55:40;;;;;;;3.33;1.33;;;;;;;;;;5061837;27;90133;-56
2023/05/13 03:58:13;;;;;;;1.80;1.33;;;;;;;;;;5062749;27;88624;-55
2023/05/13 04:00:41;;;;;;;1.80;1.50;;;;;;;;;;5062679;27;87059;-55
2023/05/13 04:03:10;;;;;;;1.43;1.33;;;;;;;;;;5062624;27;87027;-55
2023/05/13 04:05:38;;;;;;;1.53;1.37;;;;;;;;;;5062470;27;89350;-55
2023/05/13 04:08:06;;;;;;;4.33;1.37;;;;;;;;;;5062622;27;88065;-55
2023/05/13 04:10:35;;;;;;;1.27;1.17;;;;;;;;;;5062935;27;87049;-55
2023/05/13 04:13:03;;;;;;;1.90;1.00;;;;;;;;;;5062710;27;86264;-55
2023/05/13 04:15:33;;;;;;;1.10;1.00;;;;;;;;;;5061816;27;89222;-55
2023/05/13 04:18:01;;;;;;;1.40;1.30;;;;;;;;;;5062544;27;89023;-56
2023/05/13 04:20:29;;;;;;;2.03;1.20;;;;;;;;;;5062212;27;87856;-56
2023/05/13 04:22:58;;;;;;;1.53;1.27;;;;;;;;;;5062558;27;87054;-55
2023/05/13 04:25:26;;;;;;;1.60;1.50;;;;;;;;;;5061973;27;89111;-55
2023/05/13 04:27:54;;;;;;;1.37;1.23;;;;;;;;;;5062265;27;87983;-57
2023/05/13 04:30:23;;;;;;;1.70;1.40;;;;;;;;;;5062052;27;87077;-56
2023/05/13 04:32:52;;;;;;;1.67;1.10;;;;;;;;;;5062356;27;87200;-55
2023/05/13 04:35:21;;;;;;;1.40;1.30;;;;;;;;;;5061949;27;88800;-55
2023/05/13 04:37:49;;;;;;;1.60;1.13;;;;;;;;;;5061980;27;88851;-55
2023/05/13 04:40:17;;;;;;;4.93;1.30;;;;;;;;;;5061705;27;87615;-55
2023/05/13 04:42:53;;;;;;;1.43;1.30;;;;;;;;;;5061937;27;87168;-56
2023/05/13 04:45:22;;;;;;;2.00;1.50;;;;;;;;;;5060647;27;89705;-57
2023/05/13 04:47:50;;;;;;;2.60;1.20;;;;;;;;;;5061657;27;89498;-54
2023/05/13 04:50:20;;;;;;;1.60;1.30;;;;;;;;;;5061402;27;87010;-55
2023/05/13 04:52:49;;;;;;;4.00;1.67;;;;;;;;;;5061463;27;87049;-56
2023/05/13 04:55:17;;;;;;;3.00;1.60;;;;;;;;;;5060859;27;88274;-55
2023/05/13 04:57:46;;;;;;;1.80;1.30;;;;;;;;;;5060776;27;87055;-57
2023/05/13 05:00:15;;;;;;;1.90;1.13;;;;;;;;;;5070991;27;86840;-54
2023/05/13 05:02:43;;;;;;;2.00;1.47;;;;;;;;;;5062778;27;86270;-56
2023/05/13 05:05:11;;;;;;;1.00;0.97;;;;;;;;;;5061751;27;89450;-55
2023/05/13 05:07:41;;;;;;;2.37;1.10;;;;;;;;;;5061536;27;86718;-55
2023/05/13 05:10:10;;;;;;;3.80;1.60;;;;;;;;;;5061331;27;87945;-55
2023/05/13 05:12:38;;;;;;;1.50;1.30;;;;;;;;;;5062247;27;87061;-54
2023/05/13 05:15:14;;;;;;;6.03;1.40;;;;;;;;;;5061264;27;88173;-55
2023/05/13 05:17:42;;;;;;;4.40;1.50;;;;;;;;;;5061886;27;87753;-56
2023/05/13 05:20:12;;;;;;;2.07;1.30;;;;;;;;;;5062082;27;87124;-56
2023/05/13 05:22:42;;;;;;;2.37;1.40;;;;;;;;;;5061518;27;87084;-56
2023/05/13 05:25:10;;;;;;;2.80;1.53;;;;;;;;;;5060688;27;88040;-56
2023/05/13 05:27:38;;;;;;;1.50;1.40;;;;;;;;;;5062265;27;87717;-55
2023/05/13 05:30:07;;;;;;;2.40;1.47;;;;;;;;;;5060847;27;87482;-55
2023/05/13 05:32:36;;;;;;;0.83;0.83;;;;;;;;;;5061329;27;87021;-53
2023/05/13 05:35:04;;;;;;;3.53;1.70;;;;;;;;;;5061340;27;90032;-54
2023/05/13 05:37:33;;;;;;;1.83;1.40;;;;;;;;;;5062147;27;87496;-54
2023/05/13 05:40:03;;;;;;;1.43;1.33;;;;;;;;;;5061602;27;86963;-54
2023/05/13 05:42:31;;;;;;;3.60;1.33;;;;;;;;;;5061402;27;87243;-54
2023/05/13 05:45:00;;;;;;;1.63;1.07;;;;;;;;;;5060841;27;89019;-54
2023/05/13 05:47:28;;;;;;;2.80;1.53;;;;;;;;;;5061266;27;87897;-54
2023/05/13 05:49:56;;;;;;;2.20;1.37;;;;;;;;;;5061929;27;87006;-55
2023/05/13 05:52:25;;;;;;;1.13;1.03;;;;;;;;;;5064514;27;86333;-55
2023/05/13 05:54:53;;;;;;;2.83;1.83;;;;;;;;;;5064167;27;88090;-57
2023/05/13 05:57:22;;;;;;;2.67;2.17;;;;;;;;;;5064756;27;88754;-56
2023/05/13 05:59:51;;;;;;;1.70;1.60;;;;;;;;;;5064168;27;87922;-56
2023/05/13 06:02:19;;;;;;;2.33;2.07;;;;;;;;;;5065100;27;87038;-57
2023/05/13 06:04:47;;;;;;;2.03;1.43;;;;;;;;;;5064324;27;89105;-56
2023/05/13 06:07:16;;;;;;;2.10;1.60;;;;;;;;;;5064997;27;88902;-56
2023/05/13 06:09:44;;;;;;;2.50;2.03;;;;;;;;;;5065169;27;87019;-56
2023/05/13 06:12:13;;;;;;;2.50;2.03;;;;;;;;;;5065026;27;87072;-55
2023/05/13 06:14:42;;;;;;;1.57;1.47;;;;;;;;;;5064120;27;88126;-56
2023/05/13 06:17:13;;;;;;;5.67;1.60;;;;;;;;;;5064994;27;88934;-55
2023/05/13 06:19:42;;;;;;;2.10;1.57;;;;;;;;;;5065130;27;86700;-56
2023/05/13 06:22:10;;;;;;;1.90;1.70;;;;;;;;;;5064615;27;86878;-57
2023/05/13 06:24:41;;;;;;;2.77;1.77;;;;;;;;;;5063147;27;89195;-56
2023/05/13 06:27:10;;;;;;;2.00;1.77;;;;;;;;;;5064715;27;89945;-56
2023/05/13 06:29:39;;;;;;;4.07;1.80;;;;;;;;;;5064759;27;86748;-56
2023/05/13 06:32:08;;;;;;;2.73;1.73;;;;;;;;;;5064918;27;87009;-56
2023/05/13 06:34:38;;;;;;;1.80;1.70;;;;;;;;;;5064530;27;87860;-55
2023/05/13 06:37:07;;;;;;;2.13;1.70;;;;;;;;;;5063916;27;87940;-56
2023/05/13 06:39:35;;;;;;;1.90;1.70;;;;;;;;;;5064690;27;87119;-56
2023/05/13 06:42:04;;;;;;;2.17;1.97;;;;;;;;;;5064893;27;86072;-56
2023/05/13 06:44:32;;;;;;;3.50;1.87;;;;;;;;;;5063863;27;89139;-54
2023/05/13 06:47:01;;;;;;;2.43;1.90;;;;;;;;;;5064123;27;88952;-56
2023/05/13 06:49:31;;;;;;;3.53;1.90;;;;;;;;;;5063961;27;88052;-56
2023/05/13 06:51:59;;;;;;;1.93;1.40;;;;;;;;;;5063964;27;87091;-56
2023/05/13 06:54:28;;;;;;;2.77;1.90;;;;;;;;;;5063865;27;89165;-55
2023/05/13 06:56:56;;;;;;;1.97;1.77;;;;;;;;;;5063411;27;88870;-56
2023/05/13 06:59:24;;;;;;;3.70;2.07;;;;;;;;;;5064093;27;87138;-55
2023/05/13 07:01:52;;;;;;;1.70;1.60;;;;;;;;;;5063234;27;86992;-56
2023/05/13 07:04:21;;;;;;;5.97;1.67;;;;;;;;;;5063966;27;89042;-57
2023/05/13 07:06:51;;;;;;;2.23;1.67;;;;;;;;;;5064204;27;88859;-56
2023/05/13 07:09:19;;;;;;;3.47;1.77;;;;;;;;;;5064319;27;87020;-57
2023/05/13 07:11:47;;;;;;;1.57;1.47;;;;;;;;;;5064399;27;87044;-56
2023/05/13 07:14:16;;;;;;;2.20;1.40;;;;;;;;;;5063302;27;90231;-56
2023/05/13 07:16:44;;;;;;;4.27;2.00;;;;;;;;;;5063248;27;89800;-56
2023/05/13 07:19:12;;;;;;;1.70;1.53;;;;;;;;;;5063765;27;87192;-56
2023/05/13 07:21:41;;;;;;;2.03;1.87;;;;;;;;;;5063557;27;87005;-56
2023/05/13 07:24:10;;;;;;;4.87;1.63;;;;;;;;;;5063481;27;89263;-55
2023/05/13 07:26:39;;;;;;;1.60;1.50;;;;;;;;;;5063793;27;88932;-56
2023/05/13 07:29:07;;;;;;;3.40;2.37;;;;;;;;;;5063515;27;86824;-57
2023/05/13 07:31:35;;;;;;;4.93;2.40;;;;;;;;;;5064295;27;86236;-55
2023/05/13 07:34:04;;;;;;;2.57;1.90;;;;;;;;;;5063753;27;88988;-56
2023/05/13 07:36:33;;;;;;;3.20;1.77;;;;;;;;;;5063718;27;88941;-56
2023/05/13 07:39:02;;;;;;;3.07;1.83;;;;;;;;;;5063382;27;88087;-57
2023/05/13 07:41:31;;;;;;;1.87;1.70;;;;;;;;;;5064048;27;87876;-56
2023/05/13 07:44:00;;;;;;;1.73;1.57;;;;;;;;;;5063139;27;89238;-55
2023/05/13 07:46:28;;;;;;;2.33;1.90;;;;;;;;;;5062628;27;87657;-56
2023/05/13 07:48:56;;;;;;;1.70;1.60;;;;;;;;;;5062724;27;86958;-56
2023/05/13 07:51:25;;;;;;;4.17;1.90;;;;;;;;;;5063271;27;86848;-56
2023/05/13 07:53:53;;;;;;;2.33;2.00;;;;;;;;;;5063057;27;88126;-57
2023/05/13 07:56:21;;;;;;;1.87;1.63;;;;;;;;;;5062491;27;89121;-56
2023/05/13 07:58:51;;;;;;;2.27;1.63;;;;;;;;;;5063315;27;86972;-56
2023/05/13 08:01:19;;;;;;;1.80;1.50;;;;;;;;;;5063107;27;87071;-57
2023/05/13 08:03:48;;;;;;;2.57;1.60;;;;;;;;;;5062399;27;89952;-57
2023/05/13 08:06:16;;;;;;;2.77;1.57;;;;;;;;;;5062785;27;89807;-55
2023/05/13 08:08:44;;;;;;;1.67;1.57;;;;;;;;;;5063437;27;86766;-55
2023/05/13 08:11:13;;;;;;;4.40;1.70;;;;;;;;;;5063115;27;86983;-56
2023/05/13 08:13:41;;;;;;;5.07;1.50;;;;;;;;;;5062346;27;88945;-57
2023/05/13 08:16:11;;;;;;;4.00;1.33;;;;;;;;;;5062730;27;88887;-55
2023/05/13 08:18:39;;;;;;;2.23;1.73;;;;;;;;;;5062564;27;87134;-55
2023/05/13 08:21:08;;;;;;;1.50;1.40;;;;;;;;;;5063073;27;86210;-56
2023/05/13 08:23:37;;;;;;;2.07;1.43;;;;;;;;;;5062669;27;89137;-55
2023/05/13 08:26:13;;;;;;;2.93;1.53;;;;;;;;;;5062236;27;88574;-55
2023/05/13 08:28:41;;;;;;;1.50;1.40;;;;;;;;;;5062509;27;88015;-58
2023/05/13 08:31:12;;;;;;;3.33;1.40;;;;;;;;;;5062753;27;86996;-57
2023/05/13 08:33:41;;;;;;;2.17;1.53;;;;;;;;;;5062097;27;87971;-57
2023/05/13 08:36:10;;;;;;;2.53;1.93;;;;;;;;;;5062258;27;87014;-57
2023/05/13 08:38:38;;;;;;;2.27;1.47;;;;;;;;;;5062661;27;87123;-57
2023/05/13 08:41:07;;;;;;;2.43;1.57;;;;;;;;;;5062804;27;87075;-57
2023/05/13 08:43:35;;;;;;;1.40;1.27;;;;;;;;;;5062069;27;88153;-57
2023/05/13 08:46:04;;;;;;;1.60;1.43;;;;;;;;;;5062661;27;88907;-57
2023/05/13 08:48:33;;;;;;;4.27;1.47;;;;;;;;;;5062150;27;87138;-57
2023/05/13 08:51:02;;;;;;;1.87;1.30;;;;;;;;;;5062602;27;86989;-56
2023/05/13 08:53:30;;;;;;;2.50;1.80;;;;;;;;;;5062005;27;89733;-56
2023/05/13 08:55:59;;;;;;;1.50;1.40;;;;;;;;;;5062192;27;89828;-55
2023/05/13 08:58:27;;;;;;;2.40;1.70;;;;;;;;;;5062245;27;87086;-56
2023/05/13 09:00:55;;;;;;;2.30;1.57;;;;;;;;;;5061573;27;87079;-57
2023/05/13 09:03:24;;;;;;;1.63;1.50;;;;;;;;;;5062312;27;87896;-56
2023/05/13 09:05:53;;;;;;;1.63;1.40;;;;;;;;;;5061876;27;88914;-56
2023/05/13 09:08:22;;;;;;;3.13;1.50;;;;;;;;;;5061958;27;86805;-56
2023/05/13 09:10:50;;;;;;;1.20;1.10;;;;;;;;;;5062697;27;86214;-56
2023/05/13 09:13:18;;;;;;;1.50;1.37;;;;;;;;;;5061828;27;89158;-58
2023/05/13 09:15:47;;;;;;;1.80;1.20;;;;;;;;;;5061864;27;88904;-55
2023/05/13 09:18:15;;;;;;;1.40;1.30;;;;;;;;;;5061338;27;88231;-56
2023/05/13 09:20:46;;;;;;;2.40;1.40;;;;;;;;;;5062139;27;86956;-56
2023/05/13 09:23:16;;;;;;;2.73;0.97;;;;;;;;;;5061504;27;89108;-55
2023/05/13 09:25:44;;;;;;;1.47;1.30;;;;;;;;;;5063503;27;88825;-55
2023/05/13 09:28:14;;;;;;;1.37;0.97;;;;;;;;;;5065425;27;86982;-56
2023/05/13 09:30:44;;;;;;;1.40;1.30;;;;;;;;;;5065402;27;86865;-55
2023/05/13 09:33:14;;;;;;;3.40;1.07;;;;;;;;;;5065194;27;89154;-55
2023/05/13 09:35:43;;;;;;;1.20;1.10;;;;;;;;;;5065408;27;89089;-55
2023/05/13 09:38:14;;;;;;;1.17;0.90;;;;;;;;;;5065678;27;87016;-55
2023/05/13 09:40:51;;;;;;;1.73;1.10;;;;;;;;;;5065108;27;87099;-58
2023/05/13 09:43:20;;;;;;;1.27;1.03;;;;;;;;;;5064359;27;90140;-56
2023/05/13 09:45:48;;;;;;;2.20;1.13;;;;;;;;;;5065173;27;89991;-55
2023/05/13 09:48:18;;;;;;;2.17;1.60;;;;;;;;;;5064820;27;87041;-55
2023/05/13 09:50:48;;;;;;;3.67;1.30;;;;;;;;;;5065237;27;86932;-55
2023/05/13 09:53:16;;;;;;;1.80;1.70;;;;;;;;;;5064942;27;87821;-55
2023/05/13 09:55:46;;;;;;;1.70;1.60;;;;;;;;;;5065055;27;89043;-59
2023/05/13 09:58:15;;;;;;;1.47;1.13;;;;;;;;;;5065188;27;87074;-55
2023/05/13 10:00:44;;;;;;;0.93;0.93;;;;;;;;;;5064966;27;86221;-56
2023/05/13 10:03:13;;;;;;;1.60;1.40;;;;;;;;;;5064588;27;89076;-56
2023/05/13 10:05:42;;;;;;;2.27;1.40;;;;;;;;;;5064413;27;88884;-56
2023/05/13 10:08:10;;;;;;;1.80;1.30;;;;;;;;;;5064549;27;87994;-56
2023/05/13 10:10:39;;;;;;;2.63;1.40;;;;;;;;;;5065049;27;86908;-56
2023/05/13 10:13:09;;;;;;;3.33;1.20;;;;;;;;;;5064601;27;88136;-56
2023/05/13 10:15:39;;;;;;;2.67;1.47;;;;;;;;;;5064648;27;88914;-55
2023/05/13 10:18:07;;;;;;;1.30;1.03;;;;;;;;;;5064448;27;87025;-54
2023/05/13 10:20:36;;;;;;;1.03;1.03;;;;;;;;;;5064484;27;87081;-55
2023/05/13 10:23:04;;;;;;;27.83;16.93;;;;;;;;;;5064233;27;89144;-55
2023/05/13 10:25:32;;;;;;;70.80;30.90;;;;;;;;;;5064150;27;88974;-54
2023/05/13 10:28:00;;;;;;;67.33;28.13;;;;;;;;;;5063540;27;87007;-54
2023/05/13 10:30:31;;;;;;;50.10;27.10;;;;;;;;;;5063027;27;86992;-53
2023/05/13 10:33:01;;;;;;;33.00;16.43;;;;;;;;;;5059989;27;90008;-53
2023/05/13 10:35:30;;;;;;;31.43;13.40;;;;;;;;;;5048157;27;90011;-53
2023/05/13 10:38:02;;;;;;;22.47;11.40;;;;;;;;;;5061016;27;87006;-53
2023/05/13 10:40:45;;;;;;;19.27;10.20;;;;;;;;;;5056362;27;86960;-53
2023/05/13 10:43:15;;;;;;;10.37;6.80;;;;;;;;;;5043198;27;88288;-53
2023/05/13 10:45:47;;;;;;;12.13;6.60;;;;;;;;;;5043642;27;89034;-53
2023/05/13 10:48:17;;;;;;;12.93;7.03;;;;;;;;;;5043073;27;87033;-53
2023/05/13 10:50:52;;;;;;;7.53;5.10;;;;;;;;;;5044545;27;86271;-53
2023/05/13 10:53:23;;;;;;;9.07;5.07;;;;;;;;;;5042694;27;88338;-53
2023/05/13 10:55:54;;;;;;;9.07;4.40;;;;;;;;;;5043353;27;87818;-53
2023/05/13 10:58:23;;;;;;;6.00;3.63;;;;;;;;;;5043364;27;87941;-53
2023/05/13 11:00:51;;;;;;;7.77;3.83;;;;;;;;;;5043476;27;86992;-53
2023/05/13 11:03:30;;;;;;;4.97;3.07;;;;;;;;;;5043377;27;89261;-52
2023/05/13 11:05:59;;;;;;;9.47;3.73;;;;;;;;;;5042888;27;88494;-53
2023/05/13 11:08:37;;;;;;;6.67;3.77;;;;;;;;;;5043559;27;87853;-54
2023/05/13 11:11:17;;;;;;;3.87;2.70;;;;;;;;;;5043778;28;86911;-54
2023/05/13 11:13:46;;;;;;;5.73;2.57;;;;;;;;;;5043559;27;88101;-54
2023/05/13 11:16:14;;;;;;;4.10;2.43;;;;;;;;;;5043437;27;89135;-54
2023/05/13 11:18:44;;;;;;;3.80;2.03;;;;;;;;;;5043694;27;87063;-56
2023/05/13 11:21:13;;;;;;;5.77;2.23;;;;;;;;;;5043348;27;86908;-56
2023/05/13 11:23:51;;;;;;;2.50;2.30;;;;;;;;;;5042093;27;89063;-56
2023/05/13 11:26:20;;;;;;;3.53;2.70;;;;;;;;;;5052245;27;89806;-56
2023/05/13 11:28:55;;;;;;;2.27;1.60;;;;;;;;;;5055227;27;87019;-56
2023/05/13 11:31:23;;;;;;;5.80;2.37;;;;;;;;;;5062220;27;86883;-56
2023/05/13 11:34:09;;;;;;;2.13;1.93;;;;;;;;;;5043339;27;88137;-56
2023/05/13 11:36:37;;;;;;;6.60;2.30;;;;;;;;;;5042759;28;88861;-56
2023/05/13 11:39:07;;;;;;;4.00;2.43;;;;;;;;;;5044132;27;86955;-55
2023/05/13 11:41:35;;;;;;;2.77;1.73;;;;;;;;;;5061910;27;86799;-56
2023/05/13 11:44:03;;;;;;;4.63;2.13;;;;;;;;;;5063194;27;89281;-56
2023/05/13 11:46:32;;;;;;;2.30;2.10;;;;;;;;;;5062930;27;89861;-55
2023/05/13 11:49:00;;;;;;;2.97;2.23;;;;;;;;;;5061985;27;87998;-55
2023/05/13 11:51:30;;;;;;;5.13;2.13;;;;;;;;;;5063134;27;86999;-56
2023/05/13 11:54:02;;;;;;;4.33;2.10;;;;;;;;;;5063057;27;89133;-56
2023/05/13 11:56:31;;;;;;;2.33;1.70;;;;;;;;;;5063074;27;88828;-57
2023/05/13 11:59:14;;;;;;;3.77;2.57;;;;;;;;;;5062910;27;87167;-56
2023/05/13 12:01:43;;;;;;;4.60;2.50;;;;;;;;;;5062893;27;86927;-56
2023/05/13 12:04:12;;;;;;;3.93;2.17;;;;;;;;;;5062470;27;87990;-56
2023/05/13 12:06:45;;;;;;;3.23;1.80;;;;;;;;;;5063035;27;87671;-56
2023/05/13 12:09:13;;;;;;;6.40;2.37;;;;;;;;;;5062470;27;86975;-56
2023/05/13 12:11:42;;;;;;;1.83;1.73;;;;;;;;;;5062798;27;86725;-56
2023/05/13 12:14:10;;;;;;;5.47;1.80;;;;;;;;;;5062199;27;89408;-56
2023/05/13 12:16:40;;;;;;;3.40;1.90;;;;;;;;;;5061793;27;89889;-56
2023/05/13 12:19:09;;;;;;;3.20;1.67;;;;;;;;;;5062216;27;86997;-55
2023/05/13 12:21:38;;;;;;;2.07;1.60;;;;;;;;;;5062141;27;87501;-56
2023/05/13 12:24:18;;;;;;;2.57;2.03;;;;;;;;;;5062257;27;88246;-55
2023/05/13 12:26:46;;;;;;;3.57;1.50;;;;;;;;;;5062182;27;88940;-56
2023/05/13 12:29:15;;;;;;;2.00;1.57;;;;;;;;;;5062305;27;87068;-56
2023/05/13 12:31:43;;;;;;;3.93;2.03;;;;;;;;;;5062923;27;86252;-56
2023/05/13 12:34:11;;;;;;;5.87;1.97;;;;;;;;;;5062083;27;88448;-55
2023/05/13 12:36:40;;;;;;;2.70;1.93;;;;;;;;;;5062006;27;87784;-56
2023/05/13 12:39:09;;;;;;;2.00;1.23;;;;;;;;;;5062321;27;87942;-55
2023/05/13 12:41:38;;;;;;;2.00;1.30;;;;;;;;;;5062416;27;86942;-56
2023/05/13 12:44:08;;;;;;;6.20;2.37;;;;;;;;;;5061370;27;89186;-56
2023/05/13 12:46:36;;;;;;;2.43;1.70;;;;;;;;;;5062059;27;88835;-56
2023/05/13 12:49:05;;;;;;;4.13;1.70;;;;;;;;;;5062096;27;87079;-55
2023/05/13 12:51:34;;;;;;;1.77;1.17;;;;;;;;;;5062121;27;87070;-56
2023/05/13 12:54:02;;;;;;;1.67;1.30;;;;;;;;;;5061903;27;88923;-56
2023/05/13 12:56:30;;;;;;;2.57;2.00;;;;;;;;;;5061791;27;89016;-55
2023/05/13 12:59:00;;;;;;;1.67;1.30;;;;;;;;;;5060968;27;86912;-55
2023/05/13 13:01:28;;;;;;;5.07;2.07;;;;;;;;;;5060763;27;87047;-55
2023/05/13 13:03:57;;;;;;;1.10;1.10;;;;;;;;;;5060436;27;90186;-56
2023/05/13 13:06:25;;;;;;;2.07;1.80;;;;;;;;;;5061275;27;88774;-56
2023/05/13 13:08:54;;;;;;;1.97;1.57;;;;;;;;;;5061632;27;87039;-55
2023/05/13 13:11:22;;;;;;;2.70;1.73;;;;;;;;;;5061705;27;87721;-55
2023/05/13 13:13:50;;;;;;;3.40;2.00;;;;;;;;;;5061677;27;88922;-55
2023/05/13 13:16:20;;;;;;;2.80;1.50;;;;;;;;;;5061233;27;88968;-55
2023/05/13 13:18:49;;;;;;;2.90;1.20;;;;;;;;;;5061831;27;86831;-55
2023/05/13 13:21:20;;;;;;;3.03;1.57;;;;;;;;;;5061971;27;86200;-56
2023/05/13 13:23:48;;;;;;;3.00;1.80;;;;;;;;;;5061395;27;88885;-55
2023/05/13 13:26:16;;;;;;;2.27;1.93;;;;;;;;;;5061671;27;88856;-55
2023/05/13 13:28:45;;;;;;;2.30;1.57;;;;;;;;;;5061037;27;88021;-55
2023/05/13 13:31:13;;;;;;;5.67;1.73;;;;;;;;;;5060717;27;86982;-56
2023/05/13 13:33:43;;;;;;;2.10;1.53;;;;;;;;;;5060793;27;89104;-56
2023/05/13 13:36:11;;;;;;;5.00;2.07;;;;;;;;;;5060939;27;87830;-53
2023/05/13 13:38:39;;;;;;;1.67;1.50;;;;;;;;;;5061848;27;87202;-55
2023/05/13 13:41:07;;;;;;;2.27;1.57;;;;;;;;;;5061241;27;86950;-56
2023/05/13 13:43:36;;;;;;;2.20;1.37;;;;;;;;;;5060483;27;89088;-56
2023/05/13 13:46:04;;;;;;;2.13;1.40;;;;;;;;;;5060895;27;88926;-56
2023/05/13 13:48:32;;;;;;;3.80;1.77;;;;;;;;;;5061067;27;87079;-55
2023/05/13 13:51:02;;;;;;;2.07;1.47;;;;;;;;;;5060618;27;87080;-55
2023/05/13 13:53:30;;;;;;;1.73;1.43;;;;;;;;;;5060216;27;90199;-55
2023/05/13 13:55:59;;;;;;;3.37;1.90;;;;;;;;;;5060395;27;89765;-55
2023/05/13 13:58:27;;;;;;;2.53;1.50;;;;;;;;;;5061179;27;87044;-56
2023/05/13 14:00:55;;;;;;;3.33;1.40;;;;;;;;;;5060956;27;87068;-55
2023/05/13 14:03:24;;;;;;;2.10;1.70;;;;;;;;;;5060709;27;88993;-55
2023/05/13 14:05:54;;;;;;;2.23;1.53;;;;;;;;;;5044064;27;88951;-55
2023/05/13 14:08:23;;;;;;;2.23;2.03;;;;;;;;;;5039519;27;87007;-55
2023/05/13 14:10:52;;;;;;;3.27;1.83;;;;;;;;;;5041721;27;86598;-55
2023/05/13 14:13:20;;;;;;;2.07;1.40;;;;;;;;;;5043360;27;89019;-55
2023/05/13 14:15:49;;;;;;;2.17;1.40;;;;;;;;;;5043558;27;87715;-55
2023/05/13 14:18:17;;;;;;;3.63;1.50;;;;;;;;;;5043478;27;87971;-56
2023/05/13 14:20:47;;;;;;;1.47;1.37;;;;;;;;;;5044425;27;87131;-56
2023/05/13 14:23:15;;;;;;;2.50;1.53;;;;;;;;;;5044174;27;89108;-55
2023/05/13 14:25:45;;;;;;;1.60;1.50;;;;;;;;;;5043752;28;87776;-57
2023/05/13 14:28:14;;;;;;;1.87;1.47;;;;;;;;;;5043851;28;86880;-55
2023/05/13 14:30:42;;;;;;;3.63;1.43;;;;;;;;;;5043474;28;86979;-55
2023/05/13 14:33:10;;;;;;;3.47;1.40;;;;;;;;;;5043546;28;87903;-54
2023/05/13 14:35:39;;;;;;;1.43;1.33;;;;;;;;;;5043831;27;88933;-55
2023/05/13 14:38:07;;;;;;;2.17;1.47;;;;;;;;;;5043796;27;87133;-54
2023/05/13 14:40:36;;;;;;;2.73;1.20;;;;;;;;;;5043505;28;86953;-55
2023/05/13 14:43:05;;;;;;;2.27;1.60;;;;;;;;;;5043242;28;90204;-56
2023/05/13 14:45:34;;;;;;;1.47;1.27;;;;;;;;;;5043136;27;89767;-56
2023/05/13 14:48:02;;;;;;;1.90;1.23;;;;;;;;;;5044015;27;86861;-56
2023/05/13 14:50:31;;;;;;;5.23;1.20;;;;;;;;;;5043847;27;86963;-55
2023/05/13 14:52:59;;;;;;;1.50;1.37;;;;;;;;;;5043676;28;89179;-55
2023/05/13 14:55:27;;;;;;;1.40;1.30;;;;;;;;;;5043626;28;88847;-55